Granby, Colorado
Current Conditions -  °F | °C
As of 5:50 PM on Friday 24 Oct 2014 (Local Time) from K0CO Reporting Station
Clear Clear  
Wind Chill:   Ceiling: Unl
Heat Index:   Visibility: 10mi
Dew Point:   Wind: 15mph
Humidity: 81%   Direction: 300°WNW
Pressure: 30.66"   Gusts: NA
Location:  40.09°N, 105.94°W
Report Text: K0CO 242350Z AUTO 30013KT 10SM CLR 05/02 A3066 RMK AO2
Loading
Personal Weather Stations






























Interactive Weather Map
Tropical Storm Tracking
New forecast layout! Learn more

10-Day Weather Forecast

Advertisements
Track Severe Weather on mobile